Main page
METAR-TAF:

METAR-TAF

Airports :

Aeroporto di Cameri

Novara, Italy

latitude: 45-31N, longitude: 008-40E, elevation: 178 m

Current weather observation

The report was made 26 minutes ago, at 17:55 UTC
Wind 9 kt from the North
Temperature 19°C
Humidity 73%
Pressure 1016 hPa
Visibility 10 km or more
Few clouds at a height of 2500 ft
Broken clouds at a height of 4000 ft

METAR: LIMN 141755Z 01009KT 9999 FEW025 BKN040 19/14 Q1016 RMK OVC VIS MIN 9999 BLU

Time: 20:21 (18:21 UTC)

Forecast

The report was made 1 hour and 21 minutes ago, at 17:00 UTC
Forecast valid from 14 at 18 UTC to 15 at 03 UTC
Wind 5 kt from the North
Visibility 10 km or more
Scattered clouds at a height of 2500 ft
Probability 40% :
Temporary
from 14 at 21 UTC to 14 at 24 UTC
Visibility: 7000 m
Few clouds at a height of 1500 ft, Cumulonimbus.
Scattered clouds at a height of 2000 ft
rain showers,

TAF: LIMN 141700Z 1418/1503 01005KT 9999 SCT025 PROB40 TEMPO 1421/1424 7000 SHRA FEW015CB SCT020

Weather observations and forecasts of more than 4000 airports (METAR and TAF reports).

The available stations are represented by yellow and red dots on the map.

Hover mouse over dot to see the name of the station.

Then click to see weather observations and forecasts.

To change the map : click on the green buttons with a black cross to zoom in, on the green button with a dash to zoom out, or on the green arrows for adjacent maps.


METAR-TAF: